createdAt,value
2023-04-02T00:01:02.419Z,99355.78
2023-04-02T00:03:42.460Z,99352.41
2023-04-02T00:06:32.965Z,99366.13
2023-04-02T00:09:04.728Z,99362.44
2023-04-02T00:11:41.308Z,99364.72
2023-04-02T00:14:21.831Z,99364.31
2023-04-02T00:16:48.647Z,99361.81
2023-04-02T00:19:23.236Z,99364.31
2023-04-02T00:21:52.269Z,99366.66
2023-04-02T00:24:22.053Z,99365.94
2023-04-02T00:26:50.815Z,99371.28
2023-04-02T00:29:19.341Z,99366.94
2023-04-02T00:31:53.928Z,99360.59
2023-04-02T00:34:32.647Z,99361.03
2023-04-02T00:36:59.484Z,99363.72
2023-04-02T00:39:29.836Z,99367.41
2023-04-02T00:42:07.781Z,99370.22
2023-04-02T00:44:38.652Z,99377.81
2023-04-02T00:47:15.680Z,99367.53
2023-04-02T00:49:43.141Z,99374.97
2023-04-02T00:52:16.507Z,99378.19
2023-04-02T00:55:07.944Z,99381.28
2023-04-02T00:57:35.069Z,99378.59
2023-04-02T01:00:13.946Z,99380.44
2023-04-02T01:02:41.506Z,99385.97
2023-04-02T01:05:17.670Z,99378.75
2023-04-02T01:08:16.877Z,99388.78
2023-04-02T01:11:01.671Z,99391.34
2023-04-02T01:13:42.306Z,99384.28
2023-04-02T01:16:30.506Z,99380.19
2023-04-02T01:19:35.618Z,99381.34
2023-04-02T01:22:19.443Z,99376.13
2023-04-02T01:24:47.356Z,99381.34
2023-04-02T01:27:29.519Z,99378.50
2023-04-02T01:29:58.659Z,99376.53
2023-04-02T01:32:28.599Z,99381.81
2023-04-02T01:34:56.195Z,99382.91
2023-04-02T01:37:44.959Z,99378.31
2023-04-02T01:40:47.025Z,99381.47
2023-04-02T01:43:23.208Z,99387.34
2023-04-02T01:45:50.251Z,99384.47
2023-04-02T01:48:24.792Z,99384.84
2023-04-02T01:50:54.953Z,99393.09
2023-04-02T01:53:25.135Z,99401.16
2023-04-02T01:56:00.803Z,99381.03
2023-04-02T01:58:31.744Z,99385.72
2023-04-02T02:01:06.011Z,99395.59
2023-04-02T02:03:33.818Z,99395.84
2023-04-02T02:06:02.138Z,99388.31
2023-04-02T02:08:31.417Z,99387.03
2023-04-02T02:10:58.511Z,99391.53
2023-04-02T02:13:25.459Z,99397.06
2023-04-02T02:15:52.348Z,99383.09
2023-04-02T02:18:23.481Z,99391.47
2023-04-02T02:20:52.304Z,99390.19
2023-04-02T02:23:20.812Z,99394.69
2023-04-02T02:25:48.006Z,99384.81
2023-04-02T02:28:17.562Z,99391.16
2023-04-02T02:30:49.469Z,99386.09
2023-04-02T02:33:28.938Z,99390.47
2023-04-02T02:36:01.124Z,99387.78
2023-04-02T02:38:48.993Z,99387.78
2023-04-02T02:41:26.567Z,99393.00
2023-04-02T02:44:29.763Z,99394.44
2023-04-02T02:47:01.580Z,99394.78
2023-04-02T02:49:36.065Z,99393.91
2023-04-02T02:52:08.451Z,99400.28
2023-04-02T02:54:43.215Z,99397.91
2023-04-02T02:57:14.284Z,99399.75
2023-04-02T02:59:42.419Z,99398.22
2023-04-02T03:02:09.108Z,99394.84
2023-04-02T03:04:36.169Z,99396.00
2023-04-02T03:07:05.957Z,99389.25
2023-04-02T03:10:09.939Z,99401.72
2023-04-02T03:12:41.651Z,99398.50
2023-04-02T03:15:16.578Z,99396.28
2023-04-02T03:17:49.709Z,99401.94
2023-04-02T03:20:36.469Z,99394.63
2023-04-02T03:23:13.616Z,99393.69
2023-04-02T03:25:46.342Z,99392.16
2023-04-02T03:28:30.392Z,99395.16
2023-04-02T03:31:21.856Z,99390.78
2023-04-02T03:33:55.787Z,99397.56
2023-04-02T03:36:43.599Z,99397.59
2023-04-02T03:39:25.334Z,99396.19
2023-04-02T03:42:15.698Z,99401.56
2023-04-02T03:44:55.396Z,99399.72
2023-04-02T03:47:24.816Z,99404.97
2023-04-02T03:50:01.425Z,99409.47
2023-04-02T03:52:30.051Z,99409.91
2023-04-02T03:54:59.352Z,99419.94
2023-04-02T03:57:42.764Z,99411.19
2023-04-02T04:00:21.280Z,99410.19
2023-04-02T04:02:52.826Z,99411.75
2023-04-02T04:05:32.019Z,99412.75
2023-04-02T04:08:03.503Z,99421.47
2023-04-02T04:10:31.174Z,99415.97
2023-04-02T04:13:07.095Z,99418.06
2023-04-02T04:15:39.728Z,99416.06
2023-04-02T04:18:43.047Z,99422.03
2023-04-02T04:21:29.824Z,99425.81
2023-04-02T04:24:03.732Z,99426.34
2023-04-02T04:26:53.586Z,99419.84
2023-04-02T04:29:40.782Z,99428.72
2023-04-02T04:32:27.131Z,99436.09
2023-04-02T04:35:01.136Z,99436.94
2023-04-02T04:37:35.223Z,99446.00
2023-04-02T04:40:17.488Z,99447.97
2023-04-02T04:42:45.767Z,99454.19
2023-04-02T04:45:43.460Z,99449.50
2023-04-02T04:48:23.081Z,99455.56
2023-04-02T04:51:01.918Z,99464.31
2023-04-02T04:53:30.309Z,99464.19
2023-04-02T04:56:09.165Z,99459.63
2023-04-02T04:58:49.729Z,99465.56
2023-04-02T05:01:28.549Z,99464.00
2023-04-02T05:04:00.072Z,99460.19
2023-04-02T05:06:43.782Z,99462.59
2023-04-02T05:09:41.419Z,99459.59
2023-04-02T05:12:35.886Z,99460.13
2023-04-02T05:15:16.861Z,99464.75
2023-04-02T05:18:10.706Z,99466.69
2023-04-02T05:20:53.557Z,99472.31
2023-04-02T05:23:27.100Z,99475.09
2023-04-02T05:26:16.817Z,99470.13
2023-04-02T05:28:51.777Z,99483.47
2023-04-02T05:31:29.747Z,99475.34
2023-04-02T05:33:57.142Z,99463.84
2023-04-02T05:36:27.019Z,99465.63
2023-04-02T05:38:56.391Z,99465.81
2023-04-02T05:41:36.960Z,99464.59
2023-04-02T05:44:30.182Z,99467.03
2023-04-02T05:47:12.499Z,99469.47
2023-04-02T05:49:39.320Z,99471.78
2023-04-02T05:52:12.300Z,99475.22
2023-04-02T05:54:47.496Z,99473.72
2023-04-02T05:57:20.508Z,99479.31
2023-04-02T05:59:53.568Z,99483.22
2023-04-02T06:02:31.268Z,99489.84
2023-04-02T06:05:04.296Z,99484.13
2023-04-02T06:08:03.393Z,99486.38
2023-04-02T06:10:34.157Z,99490.09
2023-04-02T06:13:05.959Z,99490.47
2023-04-02T06:15:35.109Z,99494.06
2023-04-02T06:18:16.872Z,99495.75
2023-04-02T06:20:43.673Z,99495.66
2023-04-02T06:23:32.833Z,99494.66
2023-04-02T06:26:04.444Z,99501.28
2023-04-02T06:29:11.057Z,99507.84
2023-04-02T06:31:50.669Z,99504.66
2023-04-02T06:34:23.328Z,99511.25
2023-04-02T06:36:51.944Z,99511.91
2023-04-02T06:39:23.756Z,99509.75
2023-04-02T06:42:07.632Z,99515.81
2023-04-02T06:44:38.467Z,99507.25
2023-04-02T06:47:25.395Z,99506.91
2023-04-02T06:50:12.639Z,99505.72
2023-04-02T06:52:58.850Z,99512.13
2023-04-02T06:56:03.731Z,99518.53
2023-04-02T06:58:30.635Z,99515.19
2023-04-02T07:00:57.705Z,99518.06
2023-04-02T07:03:27.612Z,99508.13
2023-04-02T07:05:55.060Z,99509.66
2023-04-02T07:08:22.144Z,99508.84
2023-04-02T07:10:48.942Z,99504.44
2023-04-02T07:13:17.613Z,99502.75
2023-04-02T07:15:50.219Z,99505.66
2023-04-02T07:18:27.658Z,99508.34
2023-04-02T07:20:54.755Z,99513.91
2023-04-02T07:23:21.524Z,99516.59
2023-04-02T07:25:50.516Z,99514.75
2023-04-02T07:28:17.465Z,99521.16
2023-04-02T07:30:45.516Z,99516.75
2023-04-02T07:33:21.057Z,99514.22
2023-04-02T07:35:48.981Z,99524.34
2023-04-02T07:38:16.120Z,99521.75
2023-04-02T07:40:42.853Z,99516.53
2023-04-02T07:43:09.703Z,99521.56
2023-04-02T07:45:36.611Z,99525.06
2023-04-02T07:48:11.463Z,99533.31
2023-04-02T07:50:38.543Z,99535.34
2023-04-02T07:53:07.119Z,99542.38
2023-04-02T07:55:33.943Z,99540.84
2023-04-02T07:58:00.792Z,99542.47
2023-04-02T08:00:28.996Z,99542.97
2023-04-02T08:02:56.288Z,99542.06
2023-04-02T08:05:23.372Z,99546.56
2023-04-02T08:07:54.887Z,99547.19
2023-04-02T08:10:21.833Z,99556.75
2023-04-02T08:12:49.599Z,99559.03
2023-04-02T08:15:16.932Z,99556.28
2023-04-02T08:17:44.402Z,99564.72
2023-04-02T08:20:22.321Z,99564.53
2023-04-02T08:22:50.091Z,99567.34
2023-04-02T08:25:16.889Z,99565.41
2023-04-02T08:27:46.468Z,99574.63
2023-04-02T08:30:13.835Z,99569.50
2023-04-02T08:32:41.534Z,99563.16
2023-04-02T08:35:11.056Z,99566.25
2023-04-02T08:37:37.897Z,99573.19
2023-04-02T08:40:07.258Z,99571.25
2023-04-02T08:42:39.717Z,99570.34
2023-04-02T08:45:25.049Z,99570.16
2023-04-02T08:47:56.255Z,99572.00
2023-04-02T08:50:31.069Z,99576.34
2023-04-02T08:53:00.574Z,99583.44
2023-04-02T08:55:35.026Z,99581.66
2023-04-02T08:58:20.354Z,99584.25
2023-04-02T09:00:53.612Z,99591.56
2023-04-02T09:03:29.830Z,99583.25
2023-04-02T09:05:57.652Z,99589.78
2023-04-02T09:08:27.096Z,99590.16
2023-04-02T09:11:02.320Z,99585.50
2023-04-02T09:13:33.048Z,99585.84
2023-04-02T09:16:11.780Z,99583.69
2023-04-02T09:18:39.357Z,99585.47
2023-04-02T09:21:21.156Z,99588.03
2023-04-02T09:23:48.906Z,99584.28
2023-04-02T09:26:30.831Z,99591.88
2023-04-02T09:29:12.496Z,99600.84
2023-04-02T09:31:43.830Z,99604.41
2023-04-02T09:34:33.712Z,99602.34
2023-04-02T09:37:18.494Z,99607.31
2023-04-02T09:39:45.473Z,99606.19
2023-04-02T09:42:35.101Z,99607.22
2023-04-02T09:45:18.067Z,99607.97
2023-04-02T09:47:44.748Z,99614.09
2023-04-02T09:50:34.833Z,99613.34
2023-04-02T09:53:31.356Z,99617.47
2023-04-02T09:56:24.383Z,99609.59
2023-04-02T09:59:12.464Z,99615.38
2023-04-02T10:01:57.912Z,99621.19
2023-04-02T10:04:46.887Z,99629.50
2023-04-02T10:07:41.354Z,99628.94
2023-04-02T10:10:21.106Z,99633.59
2023-04-02T10:13:23.068Z,99632.72
2023-04-02T10:16:09.931Z,99629.25
2023-04-02T10:18:44.448Z,99621.78
2023-04-02T10:21:12.931Z,99636.78
2023-04-02T10:23:39.959Z,99630.44
2023-04-02T10:26:51.173Z,99628.41
2023-04-02T10:29:52.807Z,99628.41
2023-04-02T10:32:30.691Z,99633.81
2023-04-02T10:35:27.355Z,99625.41
2023-04-02T10:37:59.790Z,99634.84
2023-04-02T10:40:29.571Z,99627.19
2023-04-02T10:43:14.646Z,99629.38
2023-04-02T10:45:49.222Z,99627.63
2023-04-02T10:48:24.766Z,99620.56
2023-04-02T10:51:02.523Z,99630.06
2023-04-02T10:53:59.173Z,99625.47
2023-04-02T10:56:28.532Z,99623.34
2023-04-02T10:59:05.494Z,99627.72
2023-04-02T11:01:34.782Z,99617.03
2023-04-02T11:04:38.184Z,99619.16
2023-04-02T11:07:14.599Z,99618.72
2023-04-02T11:09:46.098Z,99625.06
2023-04-02T11:12:25.909Z,99604.00
2023-04-02T11:14:55.882Z,99598.56
2023-04-02T11:17:23.438Z,99595.22
2023-04-02T11:19:50.171Z,99595.13
2023-04-02T11:22:17.622Z,99593.72
2023-04-02T11:24:54.817Z,99592.72
2023-04-02T11:27:30.755Z,99578.69
2023-04-02T11:30:24.119Z,99581.81
2023-04-02T11:32:51.270Z,99588.38
2023-04-02T11:35:33.215Z,99584.41
2023-04-02T11:38:22.540Z,99582.13
2023-04-02T11:40:56.828Z,99582.31
2023-04-02T11:43:35.973Z,99580.44
2023-04-02T11:46:16.636Z,99575.38
2023-04-02T11:48:43.710Z,99588.00
2023-04-02T11:51:22.829Z,99589.88
2023-04-02T11:53:51.623Z,99586.09
2023-04-02T11:56:32.656Z,99592.78
2023-04-02T11:59:27.122Z,99586.47
2023-04-02T12:02:12.817Z,99579.88
2023-04-02T12:04:59.638Z,99571.06
2023-04-02T12:07:35.264Z,99573.94
2023-04-02T12:10:20.306Z,99579.50
2023-04-02T12:12:47.181Z,99573.53
2023-04-02T12:15:44.681Z,99563.91
2023-04-02T12:18:17.492Z,99573.34
2023-04-02T12:20:53.006Z,99562.16
2023-04-02T12:23:29.626Z,99566.44
2023-04-02T12:26:01.754Z,99565.34
2023-04-02T12:28:30.024Z,99557.31
2023-04-02T12:31:18.735Z,99555.81
2023-04-02T12:33:45.862Z,99557.56
2023-04-02T12:36:14.207Z,99555.06
2023-04-02T12:38:49.956Z,99555.53
2023-04-02T12:41:35.961Z,99548.34
2023-04-02T12:44:15.560Z,99539.28
2023-04-02T12:46:43.536Z,99537.84
2023-04-02T12:49:38.809Z,99534.81
2023-04-02T12:52:14.769Z,99531.47
2023-04-02T12:54:46.660Z,99535.75
2023-04-02T12:57:25.836Z,99537.03
2023-04-02T12:59:57.392Z,99539.00
2023-04-02T13:02:26.985Z,99548.59
2023-04-02T13:05:01.937Z,99540.53
2023-04-02T13:07:33.668Z,99541.78
2023-04-02T13:10:03.519Z,99542.31
2023-04-02T13:12:36.346Z,99548.28
2023-04-02T13:15:09.127Z,99537.84
2023-04-02T13:18:02.550Z,99545.56
2023-04-02T13:20:40.100Z,99550.56
2023-04-02T13:23:46.159Z,99557.53
2023-04-02T13:26:25.895Z,99539.81
2023-04-02T13:29:17.005Z,99546.97
2023-04-02T13:31:43.901Z,99549.38
2023-04-02T13:34:10.654Z,99543.97
2023-04-02T13:36:37.507Z,99553.03
2023-04-02T13:39:04.962Z,99563.16
2023-04-02T13:41:36.560Z,99558.81
2023-04-02T13:44:04.096Z,99560.44
2023-04-02T13:46:33.121Z,99572.34
2023-04-02T13:49:00.153Z,99560.22
2023-04-02T13:51:36.140Z,99567.41
2023-04-02T13:54:03.924Z,99562.91
2023-04-02T13:56:31.157Z,99565.94
2023-04-02T13:58:57.763Z,99562.47
2023-04-02T14:01:25.336Z,99561.25
2023-04-02T14:03:54.138Z,99563.44
2023-04-02T14:06:23.736Z,99562.16
2023-04-02T14:08:59.616Z,99555.41
2023-04-02T14:11:41.335Z,99562.75
2023-04-02T14:14:33.834Z,99552.81
2023-04-02T14:17:38.232Z,99558.53
2023-04-02T14:20:17.355Z,99553.44
2023-04-02T14:23:05.621Z,99560.34
2023-04-02T14:25:43.340Z,99560.78
2023-04-02T14:28:23.754Z,99554.84
2023-04-02T14:31:05.514Z,99568.88
2023-04-02T14:33:37.824Z,99570.22
2023-04-02T14:36:12.900Z,99568.16
2023-04-02T14:39:03.023Z,99579.19
2023-04-02T14:41:44.489Z,99577.53
2023-04-02T14:44:12.023Z,99586.56
2023-04-02T14:46:39.573Z,99594.81
2023-04-02T14:49:08.952Z,99594.59
2023-04-02T14:51:49.961Z,99599.06
2023-04-02T14:54:59.165Z,99606.19
2023-04-02T14:57:44.668Z,99615.84
2023-04-02T15:00:28.839Z,99619.84
2023-04-02T15:03:16.681Z,99622.59
2023-04-02T15:05:47.996Z,99629.09
2023-04-02T15:09:02.083Z,99628.03
2023-04-02T15:11:41.866Z,99630.13
2023-04-02T15:14:26.210Z,99641.22
2023-04-02T15:16:53.015Z,99640.34
2023-04-02T15:19:20.023Z,99653.38
2023-04-02T15:22:11.120Z,99656.19
2023-04-02T15:25:03.120Z,99668.34
2023-04-02T15:28:05.615Z,99682.44
2023-04-02T15:30:45.333Z,99721.25
2023-04-02T15:33:30.270Z,99746.72
2023-04-02T15:36:17.787Z,99753.03
2023-04-02T15:38:49.441Z,99745.91
2023-04-02T15:41:26.267Z,99739.13
2023-04-02T15:44:15.921Z,99734.69
2023-04-02T15:47:06.229Z,99733.81
2023-04-02T15:49:57.442Z,99728.56
2023-04-02T15:52:58.766Z,99713.56
2023-04-02T15:55:46.049Z,99709.03
2023-04-02T15:58:39.434Z,99706.75
2023-04-02T16:01:25.820Z,99702.03
2023-04-02T16:04:19.925Z,99690.81
2023-04-02T16:07:05.941Z,99683.28
2023-04-02T16:09:48.595Z,99684.91
2023-04-02T16:12:20.495Z,99684.72
2023-04-02T16:14:49.476Z,99683.38
2023-04-02T16:17:32.616Z,99687.22
2023-04-02T16:20:15.080Z,99686.63
2023-04-02T16:22:57.294Z,99687.53
2023-04-02T16:25:31.469Z,99685.00
2023-04-02T16:28:35.811Z,99686.53
2023-04-02T16:31:20.886Z,99697.03
2023-04-02T16:34:15.469Z,99694.00
2023-04-02T16:37:19.314Z,99695.91
2023-04-02T16:40:07.499Z,99702.16
2023-04-02T16:42:49.038Z,99704.50
2023-04-02T16:45:34.651Z,99706.19
2023-04-02T16:48:04.128Z,99713.22
2023-04-02T16:51:15.671Z,99727.28
2023-04-02T16:54:06.485Z,99728.81
2023-04-02T16:56:59.068Z,99742.22
2023-04-02T16:59:45.839Z,99744.66
2023-04-02T17:02:21.565Z,99757.19
2023-04-02T17:04:51.361Z,99760.34
2023-04-02T17:07:27.314Z,99758.56
2023-04-02T17:10:03.180Z,99777.72
2023-04-02T17:12:39.807Z,99780.31
2023-04-02T17:15:27.852Z,99776.09
2023-04-02T17:18:00.832Z,99779.84
2023-04-02T17:20:28.379Z,99790.00
2023-04-02T17:22:56.127Z,99787.81
2023-04-02T17:25:26.899Z,99795.25
2023-04-02T17:27:55.977Z,99801.47
2023-04-02T17:30:42.267Z,99793.22
2023-04-02T17:33:15.347Z,99798.94
2023-04-02T17:36:09.615Z,99807.69
2023-04-02T17:39:08.413Z,99808.94
2023-04-02T17:41:49.546Z,99802.94
2023-04-02T17:44:26.822Z,99813.16
2023-04-02T17:47:15.056Z,99810.72
2023-04-02T17:49:53.190Z,99807.78
2023-04-02T17:52:37.962Z,99814.75
2023-04-02T17:55:07.205Z,99812.63
2023-04-02T17:58:05.193Z,99816.72
2023-04-02T18:01:00.942Z,99825.06
2023-04-02T18:04:04.236Z,99834.38
2023-04-02T18:06:37.933Z,99838.44
2023-04-02T18:09:22.897Z,99843.91
2023-04-02T18:11:52.759Z,99847.88
2023-04-02T18:14:33.411Z,99843.16
2023-04-02T18:17:24.641Z,99855.69
2023-04-02T18:20:17.742Z,99858.66
2023-04-02T18:23:00.544Z,99869.72
2023-04-02T18:26:16.444Z,99874.50
2023-04-02T18:28:45.994Z,99882.88
2023-04-02T18:31:28.226Z,99890.84
2023-04-02T18:34:19.828Z,99892.94
2023-04-02T18:37:01.492Z,99893.94
2023-04-02T18:39:45.398Z,99913.34
2023-04-02T18:42:43.608Z,99910.81
2023-04-02T18:45:24.040Z,99923.13
2023-04-02T18:47:59.471Z,99923.72
2023-04-02T18:50:28.900Z,99927.81
2023-04-02T18:52:55.623Z,99936.44
2023-04-02T18:55:32.915Z,99933.03
2023-04-02T18:58:22.854Z,99937.41
2023-04-02T19:00:50.614Z,99942.97
2023-04-02T19:03:26.143Z,99954.81
2023-04-02T19:06:03.002Z,99953.41
2023-04-02T19:08:38.507Z,99956.94
2023-04-02T19:11:12.038Z,99961.72
2023-04-02T19:13:38.781Z,99955.78
2023-04-02T19:16:17.276Z,99962.56
2023-04-02T19:19:13.132Z,99961.16
2023-04-02T19:21:53.864Z,99963.13
2023-04-02T19:24:42.484Z,99965.81
2023-04-02T19:27:33.901Z,99971.75
2023-04-02T19:30:15.797Z,99974.13
2023-04-02T19:33:06.537Z,99973.53
2023-04-02T19:35:47.979Z,99983.81
2023-04-02T19:38:20.463Z,99984.38
2023-04-02T19:40:59.007Z,99990.53
2023-04-02T19:43:25.868Z,100000.81
2023-04-02T19:45:54.448Z,99999.53
2023-04-02T19:48:32.401Z,100001.84
2023-04-02T19:50:59.094Z,100004.94
2023-04-02T19:53:25.640Z,100000.44
2023-04-02T19:55:52.409Z,100017.59
2023-04-02T19:58:29.130Z,100007.81
2023-04-02T20:00:56.200Z,100025.88
2023-04-02T20:03:23.390Z,100026.47
2023-04-02T20:05:50.722Z,100033.28
2023-04-02T20:08:17.652Z,100035.66
2023-04-02T20:10:44.991Z,100035.66
2023-04-02T20:13:11.858Z,100037.09
2023-04-02T20:15:39.920Z,100044.16
2023-04-02T20:18:07.706Z,100044.56
2023-04-02T20:20:34.505Z,100046.75
2023-04-02T20:23:01.370Z,100045.06
2023-04-02T20:25:27.928Z,100056.03
2023-04-02T20:27:54.541Z,100048.28
2023-04-02T20:30:21.104Z,100054.00
2023-04-02T20:32:47.751Z,100054.00
2023-04-02T20:35:14.423Z,100065.00
2023-04-02T20:37:41.970Z,100069.66
2023-04-02T20:40:10.012Z,100068.34
2023-04-02T20:42:36.795Z,100066.66
2023-04-02T20:45:05.218Z,100077.50
2023-04-02T20:47:32.198Z,100075.91
2023-04-02T20:49:58.753Z,100087.63
2023-04-02T20:52:25.424Z,100098.22
2023-04-02T20:54:53.259Z,100097.97
2023-04-02T20:57:21.882Z,100103.19
2023-04-02T20:59:48.790Z,100105.16
2023-04-02T21:02:15.546Z,100115.91
2023-04-02T21:04:42.155Z,100114.03
2023-04-02T21:07:08.689Z,100116.88
2023-04-02T21:09:35.424Z,100118.00
2023-04-02T21:12:01.957Z,100123.34
2023-04-02T21:14:31.344Z,100122.59
2023-04-02T21:16:57.922Z,100127.25
2023-04-02T21:19:24.506Z,100124.56
2023-04-02T21:21:51.071Z,100128.97
2023-04-02T21:24:17.628Z,100132.50
2023-04-02T21:26:46.446Z,100140.66
2023-04-02T21:29:13.562Z,100139.69
2023-04-02T21:31:41.097Z,100138.81
2023-04-02T21:34:09.254Z,100145.16
2023-04-02T21:36:39.599Z,100139.81
2023-04-02T21:39:12.232Z,100147.13
2023-04-02T21:41:41.741Z,100144.06
2023-04-02T21:44:10.589Z,100144.81
2023-04-02T21:46:39.230Z,100151.00
2023-04-02T21:49:08.354Z,100153.69
2023-04-02T21:51:37.536Z,100162.47
2023-04-02T21:54:04.768Z,100162.47
2023-04-02T21:56:34.499Z,100160.63
2023-04-02T21:59:02.247Z,100171.34
2023-04-02T22:01:32.008Z,100172.34
2023-04-02T22:04:01.387Z,100168.31
2023-04-02T22:06:30.969Z,100178.22
2023-04-02T22:09:00.427Z,100184.78
2023-04-02T22:11:33.630Z,100186.75
2023-04-02T22:14:02.915Z,100187.00
2023-04-02T22:16:31.304Z,100187.25
2023-04-02T22:19:01.477Z,100186.50
2023-04-02T22:21:32.475Z,100195.69
2023-04-02T22:24:01.296Z,100203.09
2023-04-02T22:26:28.274Z,100189.84
2023-04-02T22:28:54.887Z,100189.84
2023-04-02T22:31:25.104Z,100191.78
2023-04-02T22:33:53.048Z,100196.16
2023-04-02T22:36:20.815Z,100197.41
2023-04-02T22:38:47.692Z,100199.50
2023-04-02T22:41:17.004Z,100212.13
2023-04-02T22:43:44.952Z,100208.75
2023-04-02T22:46:14.171Z,100225.44
2023-04-02T22:48:41.298Z,100220.34
2023-04-02T22:51:09.495Z,100221.44
2023-04-02T22:53:36.999Z,100228.00
2023-04-02T22:56:10.416Z,100220.94
2023-04-02T22:58:37.919Z,100225.19
2023-04-02T23:01:11.837Z,100228.09
2023-04-02T23:03:38.630Z,100229.81
2023-04-02T23:06:07.802Z,100235.31
2023-04-02T23:08:35.465Z,100242.47
2023-04-02T23:11:10.546Z,100240.53
2023-04-02T23:13:38.124Z,100236.25
2023-04-02T23:16:07.671Z,100246.88
2023-04-02T23:18:35.800Z,100245.88
2023-04-02T23:21:02.821Z,100250.53
2023-04-02T23:23:31.395Z,100246.03
2023-04-02T23:26:04.990Z,100248.81
2023-04-02T23:28:31.577Z,100250.91
2023-04-02T23:30:58.214Z,100252.97
2023-04-02T23:33:24.788Z,100252.69
2023-04-02T23:35:51.415Z,100253.69
2023-04-02T23:38:18.008Z,100251.00
2023-04-02T23:40:44.609Z,100253.91
2023-04-02T23:43:11.363Z,100255.75
2023-04-02T23:45:38.188Z,100255.84
2023-04-02T23:48:05.164Z,100267.53
2023-04-02T23:50:31.915Z,100268.41
2023-04-02T23:52:58.467Z,100269.63
2023-04-02T23:55:25.300Z,100265.34
2023-04-02T23:57:52.018Z,100272.88
